Time;durP1;ratioP1;P1;durP2;ratioP2;P2;SDS_P1;SDS_P2;PMS_P1;PMS_P2;Temp;Humidity;BMP_temperature;BMP_pressure;BME280_temperature;BME280_humidity;BME280_pressure;Samples;Min_cycle;Max_cycle;Signal;HPM_P1;HPM_P2
2021/06/11 00:01:03;;;;;;;7.13;5.68;;;;;;;11.93;69.14;99893.36;260726;1107;103336;-69
2021/06/11 00:06:08;;;;;;;9.00;7.73;;;;;;;12.03;69.55;99891.70;261427;1107;102962;-68
2021/06/11 00:11:14;;;;;;;10.85;7.65;;;;;;;12.17;69.42;99880.72;261260;1107;103187;-68
2021/06/11 00:16:21;;;;;;;10.90;8.20;;;;;;;12.30;69.67;99891.08;260070;1107;103080;-69
2021/06/11 00:21:27;;;;;;;8.50;7.50;;;;;;;12.37;69.67;99895.22;261794;1107;102041;-68
2021/06/11 00:26:31;;;;;;;13.20;8.78;;;;;;;12.52;69.99;99885.84;261635;1107;102963;-69
2021/06/11 00:31:36;;;;;;;8.25;7.60;;;;;;;12.58;69.41;99885.66;262570;1107;102991;-70
2021/06/11 00:36:41;;;;;;;12.55;9.88;;;;;;;12.68;69.90;99885.01;262648;1107;102308;-69
2021/06/11 00:41:45;;;;;;;7.48;6.18;;;;;;;12.76;69.80;99876.58;262638;1107;102101;-70
2021/06/11 00:46:51;;;;;;;7.35;5.53;;;;;;;12.70;69.46;99875.69;262258;1107;102949;-70
2021/06/11 00:51:55;;;;;;;10.15;8.28;;;;;;;12.67;69.93;99870.02;262470;1107;102669;-71
2021/06/11 00:57:02;;;;;;;13.75;8.50;;;;;;;12.74;69.99;99866.13;261378;1107;103120;-71
2021/06/11 01:02:15;;;;;;;12.23;8.48;;;;;;;12.82;70.24;99862.23;261092;1107;102965;-68
2021/06/11 01:07:22;;;;;;;9.05;7.93;;;;;;;12.86;70.46;99857.97;260697;1107;103088;-69
2021/06/11 01:12:28;;;;;;;12.10;8.18;;;;;;;12.79;70.25;99860.04;261358;1107;103102;-69
2021/06/11 01:17:36;;;;;;;12.80;8.18;;;;;;;12.86;70.52;99863.33;259923;1107;102998;-69
2021/06/11 01:22:53;;;;;;;14.75;8.70;;;;;;;12.96;70.20;99859.98;260924;1107;102940;-68
2021/06/11 01:27:58;;;;;;;9.85;8.05;;;;;;;12.98;70.10;99863.23;260371;1107;103130;-67
2021/06/11 01:33:04;;;;;;;11.68;6.45;;;;;;;12.79;70.14;99860.04;260329;1107;103059;-69
2021/06/11 01:38:17;;;;;;;11.90;7.87;;;;;;;12.63;69.96;99864.34;260786;1102;103056;-68
2021/06/11 01:43:26;;;;;;;11.50;7.63;;;;;;;12.54;70.09;99852.43;260603;1103;102968;-71
2021/06/11 01:48:32;;;;;;;8.10;7.33;;;;;;;12.50;70.07;99853.19;260625;1107;103264;-69
2021/06/11 01:53:38;;;;;;;8.33;7.63;;;;;;;12.34;69.92;99847.59;260577;1103;103419;-70
2021/06/11 01:58:44;;;;;;;7.53;6.75;;;;;;;12.17;70.17;99841.44;260165;1107;102963;-70
2021/06/11 02:03:51;;;;;;;11.65;6.63;;;;;;;12.05;70.46;99846.84;260565;1107;103039;-68
2021/06/11 02:08:57;;;;;;;8.55;7.60;;;;;;;12.06;70.55;99851.14;260186;1103;103333;-68
2021/06/11 02:14:02;;;;;;;8.83;7.93;;;;;;;12.08;70.85;99842.89;260902;1107;103046;-68
2021/06/11 02:19:08;;;;;;;12.68;10.33;;;;;;;12.13;71.21;99853.66;260069;1107;103014;-69
2021/06/11 02:24:12;;;;;;;12.10;7.63;;;;;;;12.11;70.86;99853.09;261014;1107;103035;-68
2021/06/11 02:29:18;;;;;;;13.15;8.43;;;;;;;11.97;70.61;99849.09;261414;1107;102943;-68
2021/06/11 02:34:24;;;;;;;16.70;8.48;;;;;;;11.86;70.52;99845.45;261399;1107;102946;-69
2021/06/11 02:39:29;;;;;;;9.93;7.55;;;;;;;11.73;70.67;99857.20;260695;1107;103014;-67
2021/06/11 02:44:40;;;;;;;11.58;7.93;;;;;;;11.68;71.06;99862.44;262617;1107;101458;-68
2021/06/11 02:49:51;;;;;;;8.65;7.90;;;;;;;11.76;71.38;99861.26;262087;1107;102944;-68
2021/06/11 02:55:02;;;;;;;8.83;5.53;;;;;;;11.61;70.80;99861.80;261698;1107;102965;-68
2021/06/11 03:00:09;;;;;;;9.73;8.83;;;;;;;11.46;70.52;99866.83;260713;1103;102966;-70
2021/06/11 03:05:19;;;;;;;7.70;7.00;;;;;;;11.48;71.10;99856.73;261558;1107;103536;-68
2021/06/11 03:10:29;;;;;;;9.70;6.60;;;;;;;11.47;70.98;99865.78;261182;1107;102991;-71
2021/06/11 03:15:36;;;;;;;9.00;8.08;;;;;;;11.47;71.26;99865.78;260701;1107;103059;-71
2021/06/11 03:20:45;;;;;;;12.28;7.38;;;;;;;11.48;71.77;99865.55;260123;1107;103015;-71
2021/06/11 03:25:55;;;;;;;12.25;10.28;;;;;;;11.55;72.04;99865.41;260796;1107;103033;-69
2021/06/11 03:31:02;;;;;;;10.15;9.25;;;;;;;11.65;71.85;99862.92;260525;1107;103040;-68
2021/06/11 03:36:27;;;;;;;9.55;8.55;;;;;;;11.76;72.54;99866.59;260686;1107;103610;-69
2021/06/11 03:41:34;;;;;;;10.73;6.85;;;;;;;12.10;72.10;99862.16;260048;1107;103091;-69
2021/06/11 03:46:42;;;;;;;10.53;7.98;;;;;;;12.27;71.66;99865.64;260625;1107;103187;-69
2021/06/11 03:51:49;;;;;;;10.18;9.25;;;;;;;12.37;71.30;99865.81;260478;1106;102940;-69
2021/06/11 03:56:55;;;;;;;10.40;8.60;;;;;;;12.66;71.82;99863.85;260371;1107;103360;-69
2021/06/11 04:02:03;;;;;;;17.60;8.10;;;;;;;12.99;71.96;99873.69;260181;1107;102995;-70
2021/06/11 04:07:24;;;;;;;8.33;7.58;;;;;;;13.30;71.68;99861.54;260435;1103;103059;-70
2021/06/11 04:12:41;;;;;;;8.75;7.83;;;;;;;13.59;71.64;99867.50;261540;1107;102968;-69
2021/06/11 04:17:53;;;;;;;10.90;9.28;;;;;;;13.93;71.39;99875.35;260460;1107;103135;-68
2021/06/11 04:23:02;;;;;;;10.68;9.55;;;;;;;14.21;71.91;99874.27;261555;1107;103004;-68
2021/06/11 04:28:09;;;;;;;10.60;9.60;;;;;;;14.52;71.85;99867.31;259857;1101;103097;-70
2021/06/11 04:33:23;;;;;;;9.78;8.23;;;;;;;14.97;71.27;99864.94;261608;1107;102986;-70
2021/06/11 04:38:29;;;;;;;10.03;7.78;;;;;;;15.54;69.97;99868.66;262189;1107;101971;-68
2021/06/11 04:43:34;;;;;;;13.12;9.04;;;;;;;16.56;69.23;99864.22;262617;1107;101507;-68
2021/06/11 04:48:38;;;;;;;9.98;9.08;;;;;;;17.72;67.73;99866.61;262221;1107;101472;-68
2021/06/11 04:53:43;;;;;;;19.50;10.75;;;;;;;18.25;66.79;99858.69;261698;1107;102956;-68
2021/06/11 04:58:48;;;;;;;16.40;10.83;;;;;;;18.20;65.51;99861.42;261326;1107;102966;-69
2021/06/11 05:03:52;;;;;;;13.35;10.43;;;;;;;19.57;64.50;99851.90;261374;1107;103031;-69
2021/06/11 05:08:57;;;;;;;10.57;8.83;;;;;;;22.24;60.56;99857.23;260274;1107;103365;-69
2021/06/11 05:14:00;;;;;;;10.63;9.63;;;;;;;23.94;58.95;99853.08;261525;1107;102957;-69
2021/06/11 05:19:05;;;;;;;10.08;9.10;;;;;;;25.06;56.71;99864.60;260001;1103;102971;-68
2021/06/11 05:24:11;;;;;;;10.70;9.70;;;;;;;25.89;55.04;99866.68;260532;1107;103084;-68
2021/06/11 05:29:16;;;;;;;11.88;10.20;;;;;;;24.48;54.05;99873.39;260357;1107;103112;-68
2021/06/11 05:34:21;;;;;;;14.85;11.08;;;;;;;23.15;54.98;99879.33;261261;1107;103091;-70
2021/06/11 05:39:25;;;;;;;19.55;10.98;;;;;;;22.06;55.17;99879.92;260895;1107;103064;-73
2021/06/11 05:44:30;;;;;;;13.25;11.15;;;;;;;21.36;55.99;99880.36;261160;1107;103001;-71
2021/06/11 05:49:35;;;;;;;15.95;10.45;;;;;;;20.83;57.24;99878.88;261414;1107;101414;-68
2021/06/11 05:54:40;;;;;;;10.15;9.13;;;;;;;20.44;56.90;99882.03;260849;1107;102965;-71
2021/06/11 05:59:44;;;;;;;10.78;9.65;;;;;;;20.16;58.18;99880.29;261004;1102;102965;-70
2021/06/11 06:04:48;;;;;;;9.35;7.98;;;;;;;20.15;58.56;99884.09;260924;1106;102964;-71
2021/06/11 06:09:54;;;;;;;11.40;9.15;;;;;;;20.35;58.31;99875.64;261310;1107;102959;-70
2021/06/11 06:14:59;;;;;;;10.45;9.48;;;;;;;20.47;58.74;99873.31;259945;1107;103033;-68
2021/06/11 06:20:07;;;;;;;9.33;8.33;;;;;;;22.07;56.99;99879.62;260061;1107;103120;-70
2021/06/11 06:25:18;;;;;;;12.85;9.35;;;;;;;22.77;55.83;99878.16;260485;1107;103217;-70
2021/06/11 07:44:22;;;;;;;10.28;9.25;;;;;;;22.86;53.17;99889.92;260561;1107;103058;-72
2021/06/11 07:49:27;;;;;;;11.75;7.90;;;;;;;22.62;53.62;99895.69;261484;1107;102972;-66
2021/06/11 07:54:32;;;;;;;7.95;7.35;;;;;;;22.55;53.74;99889.08;260585;1108;103248;-74
2021/06/11 07:59:36;;;;;;;11.35;7.05;;;;;;;22.66;53.58;99893.12;261365;1107;103100;-74
2021/06/11 08:04:41;;;;;;;10.70;8.25;;;;;;;22.94;53.39;99894.58;261603;1107;103061;-79
2021/06/11 08:09:45;;;;;;;7.25;6.68;;;;;;;23.37;52.64;99885.79;261481;1107;102940;-73
2021/06/11 08:14:49;;;;;;;15.30;8.15;;;;;;;23.77;52.57;99883.83;262577;1107;102799;-74
2021/06/11 08:19:54;;;;;;;8.33;6.80;;;;;;;24.45;52.17;99891.22;262596;1107;101400;-74
2021/06/11 08:24:58;;;;;;;9.18;8.38;;;;;;;24.64;50.75;99881.88;262592;1108;101118;-76
2021/06/11 08:30:03;;;;;;;7.93;6.78;;;;;;;24.82;51.05;99873.30;261401;1107;102972;-73
2021/06/11 08:35:23;;;;;;;7.55;6.88;;;;;;;25.20;50.50;99872.55;262582;1107;101704;-77
2021/06/11 08:40:27;;;;;;;7.10;6.10;;;;;;;25.73;49.71;99869.19;261509;1107;103097;-76
2021/06/11 08:45:32;;;;;;;10.18;6.53;;;;;;;26.07;48.97;99884.52;261441;1107;102914;-78
2021/06/11 08:50:38;;;;;;;9.33;8.28;;;;;;;26.15;47.76;99874.65;261076;1107;103127;-74
2021/06/11 08:55:42;;;;;;;6.03;5.53;;;;;;;26.36;47.88;99875.44;260009;1107;103177;-77
2021/06/11 09:00:47;;;;;;;;;;;;;;;26.70;46.92;99873.48;260971;1107;103074;-71
2021/06/11 09:06:00;;;;;;;6.03;5.05;;;;;;;26.79;46.42;99863.25;260769;1107;103302;-75
2021/06/11 09:11:11;;;;;;;7.75;4.33;;;;;;;26.68;45.82;99865.62;260476;1108;103318;-75
2021/06/11 09:16:26;;;;;;;7.00;5.08;;;;;;;26.38;44.73;99873.17;260242;1107;103013;-81
2021/06/11 09:21:35;;;;;;;5.58;4.98;;;;;;;26.22;44.65;99863.19;260438;1107;103042;-75
2021/06/11 09:32:24;;;;;;;6.18;4.33;;;;;;;26.00;43.67;99870.59;260681;1107;103177;-79
2021/06/11 09:37:30;;;;;;;9.38;5.60;;;;;;;25.78;44.11;99874.46;260964;1107;103007;-76
2021/06/11 09:42:40;;;;;;;6.05;5.50;;;;;;;25.53;44.07;99878.14;260317;1107;103337;-76
2021/06/11 09:47:53;;;;;;;5.40;4.90;;;;;;;25.47;43.44;99879.45;260204;1102;103076;-73
2021/06/11 09:53:02;;;;;;;5.05;4.65;;;;;;;25.69;43.87;99862.80;260756;1107;103060;-76
2021/06/11 09:58:18;;;;;;;8.48;3.60;;;;;;;25.89;42.95;99871.34;260170;1107;102969;-78
2021/06/11 10:03:34;;;;;;;3.88;3.48;;;;;;;25.89;42.12;99874.08;260677;1107;103046;-76
2021/06/11 10:08:43;;;;;;;5.30;4.90;;;;;;;25.79;42.14;99870.59;260284;1107;103037;-72
2021/06/11 10:13:49;;;;;;;5.68;3.60;;;;;;;25.81;42.18;99862.88;260042;1107;102987;-77
2021/06/11 10:18:56;;;;;;;9.60;4.48;;;;;;;26.07;41.90;99859.92;262617;1107;101456;-73
2021/06/11 10:24:02;;;;;;;5.30;4.90;;;;;;;26.37;42.03;99852.44;262569;1107;102129;-73
2021/06/11 10:29:07;;;;;;;5.90;4.78;;;;;;;26.53;41.52;99857.28;262545;1107;101418;-72
2021/06/11 10:34:11;;;;;;;127.35;42.28;;;;;;;26.34;40.50;99850.38;261776;1108;101340;-75
2021/06/11 10:39:16;;;;;;;14.10;4.68;;;;;;;26.10;39.72;99845.59;261475;1107;102957;-76
2021/06/11 10:44:44;;;;;;;17.95;8.78;;;;;;;26.08;40.67;99836.94;261274;1107;102942;-78
2021/06/11 10:49:58;;;;;;;8.33;3.40;;;;;;;26.06;39.30;99827.48;261877;1107;103213;-75
2021/06/11 10:55:16;;;;;;;4.98;3.73;;;;;;;26.37;39.60;99825.11;260998;1107;103071;-79
2021/06/11 11:00:28;;;;;;;4.98;4.53;;;;;;;26.74;39.96;99827.92;260741;1107;102971;-78
2021/06/11 11:05:36;;;;;;;7.13;5.55;;;;;;;26.88;39.93;99831.13;260176;1108;103071;-78
2021/06/11 11:10:47;;;;;;;5.78;5.20;;;;;;;26.82;40.33;99832.49;261157;1107;102591;-76
2021/06/11 11:15:55;;;;;;;5.18;4.58;;;;;;;26.65;40.13;99819.02;260666;1107;103207;-77
2021/06/11 11:21:24;;;;;;;4.47;4.07;;;;;;;26.66;40.06;99820.61;260013;1108;103065;-75
2021/06/11 11:26:40;;;;;;;5.15;4.08;;;;;;;26.60;40.06;99821.98;261192;1107;103852;-75
2021/06/11 11:31:48;;;;;;;4.43;4.13;;;;;;;26.56;39.89;99818.33;260694;1107;103049;-73
2021/06/11 11:36:54;;;;;;;4.10;3.80;;;;;;;26.28;39.63;99813.46;261138;1107;104783;-74
2021/06/11 11:41:58;;;;;;;;;;;;;;;26.02;39.50;99818.35;260581;1107;103039;-74
2021/06/11 11:47:03;;;;;;;5.23;4.25;;;;;;;25.75;39.66;99817.78;261422;1107;103017;-74
2021/06/11 11:52:07;;;;;;;6.40;3.93;;;;;;;25.69;40.16;99808.19;260989;1102;103073;-74
2021/06/11 11:57:15;;;;;;;4.50;4.10;;;;;;;25.73;40.31;99802.86;261472;1107;103073;-76
2021/06/11 12:02:20;;;;;;;4.25;3.30;;;;;;;25.75;40.82;99806.06;259988;1107;103041;-77
2021/06/11 12:07:25;;;;;;;3.83;3.55;;;;;;;25.74;40.37;99797.07;261778;1107;102967;-74
2021/06/11 12:12:30;;;;;;;3.80;3.00;;;;;;;25.57;40.70;99791.73;261896;1107;103032;-77
2021/06/11 12:17:34;;;;;;;7.32;3.38;;;;;;;25.40;40.99;99784.45;261191;1103;103106;-78
2021/06/11 12:22:38;;;;;;;5.43;3.28;;;;;;;25.35;40.82;99786.61;261499;1107;103062;-72
2021/06/11 12:27:43;;;;;;;7.33;3.25;;;;;;;25.44;41.07;99787.33;261808;1107;101807;-73
2021/06/11 12:32:47;;;;;;;6.75;4.48;;;;;;;25.39;40.59;99788.31;262618;1107;101415;-75
2021/06/11 12:37:54;;;;;;;4.08;3.68;;;;;;;25.49;40.94;99782.47;262276;1107;101876;-75
2021/06/11 12:43:04;;;;;;;4.73;3.65;;;;;;;25.67;40.25;99774.98;262207;1108;101326;-77
2021/06/11 12:48:13;;;;;;;4.60;4.20;;;;;;;26.13;40.48;99778.56;260513;1107;103052;-77
2021/06/11 12:53:17;;;;;;;4.05;3.75;;;;;;;26.58;40.51;99778.58;259770;1107;103070;-74
2021/06/11 12:58:21;;;;;;;4.40;3.50;;;;;;;26.62;39.67;99765.80;259880;1107;103048;-73
2021/06/11 13:03:25;;;;;;;6.80;4.65;;;;;;;26.18;39.29;99775.63;260396;1102;102995;-71
2021/06/11 13:08:29;;;;;;;4.58;3.18;;;;;;;25.59;39.76;99780.48;260263;1107;103873;-76
2021/06/11 13:13:33;;;;;;;4.53;4.08;;;;;;;24.92;40.64;99768.53;259950;1107;102956;-73
2021/06/11 13:18:38;;;;;;;4.18;3.85;;;;;;;24.49;41.93;99768.72;259806;1102;102996;-72
2021/06/11 13:23:42;;;;;;;6.05;4.33;;;;;;;24.62;42.01;99769.64;260068;1107;103131;-72
2021/06/11 13:28:47;;;;;;;5.53;4.33;;;;;;;24.85;41.82;99769.05;260023;1107;103102;-77
2021/06/11 13:33:51;;;;;;;4.10;3.90;;;;;;;24.75;40.99;99774.89;260056;1107;102966;-79
2021/06/11 13:38:57;;;;;;;;;;;;;;;24.89;41.51;99763.73;259939;1107;105144;-72
2021/06/11 13:44:04;;;;;;;3.60;3.30;;;;;;;25.07;40.92;99762.53;259946;1107;103060;-79
2021/06/11 13:49:09;;;;;;;4.20;3.48;;;;;;;25.16;39.95;99760.55;260368;1107;103779;-77
2021/06/11 13:54:13;;;;;;;2.65;2.55;;;;;;;25.34;39.72;99760.45;260070;1108;103268;-73
2021/06/11 13:59:17;;;;;;;3.45;3.15;;;;;;;25.43;39.53;99759.23;260051;1107;102972;-78
2021/06/11 14:04:22;;;;;;;3.10;2.40;;;;;;;25.39;38.56;99771.14;260776;1107;103269;-73
2021/06/11 14:09:26;;;;;;;2.25;2.15;;;;;;;25.26;38.74;99764.83;259947;1108;103098;-73
2021/06/11 14:14:31;;;;;;;3.75;2.90;;;;;;;25.25;38.81;99763.23;260967;1107;103100;-75
2021/06/11 14:19:35;;;;;;;2.75;2.60;;;;;;;25.30;38.25;99754.06;259970;1107;102993;-73
2021/06/11 14:24:39;;;;;;;2.45;2.35;;;;;;;25.26;38.03;99745.73;259889;1108;103009;-72
2021/06/11 14:29:47;;;;;;;2.30;2.18;;;;;;;25.26;38.44;99748.46;260484;1107;103081;-73
2021/06/11 14:34:54;;;;;;;3.03;2.65;;;;;;;25.29;38.94;99744.27;261940;1107;102966;-75
2021/06/11 14:40:00;;;;;;;3.30;2.35;;;;;;;24.96;37.76;99753.16;260881;1108;103041;-72
2021/06/11 14:45:08;;;;;;;3.95;2.50;;;;;;;24.78;38.76;99749.67;261452;1103;103041;-75
2021/06/11 14:50:13;;;;;;;5.23;2.30;;;;;;;24.74;38.02;99745.23;260459;1107;103075;-72
2021/06/11 14:55:19;;;;;;;3.03;2.83;;;;;;;24.51;38.39;99741.95;261017;1107;102937;-73
2021/06/11 15:00:22;;;;;;;3.68;2.40;;;;;;;24.34;38.41;99745.55;260480;1107;103246;-72
2021/06/11 15:05:26;;;;;;;3.25;3.05;;;;;;;24.18;38.73;99739.78;260426;1107;103033;-72
2021/06/11 15:10:32;;;;;;;2.30;2.10;;;;;;;24.12;38.52;99743.03;260464;1107;102977;-71
2021/06/11 15:15:39;;;;;;;1.98;1.88;;;;;;;24.10;38.88;99737.11;261167;1107;102965;-74
2021/06/11 15:20:43;;;;;;;7.38;3.40;;;;;;;24.04;38.80;99736.47;260380;1107;102999;-70
2021/06/11 15:25:48;;;;;;;3.98;1.93;;;;;;;24.09;38.82;99733.58;260924;1107;102964;-72
2021/06/11 15:30:54;;;;;;;5.38;2.60;;;;;;;24.10;38.66;99734.38;259948;1107;103080;-72
2021/06/11 15:36:00;;;;;;;3.60;2.50;;;;;;;24.06;38.33;99730.70;259958;1107;102968;-73
2021/06/11 15:41:04;;;;;;;6.98;3.50;;;;;;;23.99;38.29;99722.23;260160;1107;103066;-73
2021/06/11 15:46:09;;;;;;;7.70;2.58;;;;;;;23.95;38.04;99705.73;260626;1107;102939;-72
2021/06/11 15:51:14;;;;;;;;;;;;;;;23.91;37.85;99712.14;260751;1107;103083;-73
2021/06/11 15:56:19;;;;;;;2.03;1.85;;;;;;;23.88;38.46;99702.70;260096;1103;103089;-73
2021/06/11 16:01:24;;;;;;;3.28;2.35;;;;;;;23.84;37.77;99710.74;259913;1107;103104;-74
2021/06/11 16:06:29;;;;;;;2.23;2.05;;;;;;;23.79;38.15;99713.63;260070;1107;103078;-73
2021/06/11 16:11:34;;;;;;;2.35;2.25;;;;;;;23.75;38.37;99718.11;260386;1107;103120;-72
2021/06/11 16:16:40;;;;;;;2.25;1.90;;;;;;;23.65;38.12;99714.91;259906;1107;103137;-73
2021/06/11 16:21:47;;;;;;;1.68;1.58;;;;;;;23.61;37.52;99725.64;261672;1107;102766;-74
2021/06/11 16:26:51;;;;;;;4.68;1.90;;;;;;;23.55;37.46;99726.92;261232;1103;103710;-74
2021/06/11 16:31:55;;;;;;;1.78;1.60;;;;;;;23.51;37.48;99725.95;262292;1108;102939;-73
2021/06/11 16:37:00;;;;;;;2.40;2.20;;;;;;;23.41;37.70;99727.06;262572;1108;102865;-74
2021/06/11 16:42:05;;;;;;;2.33;2.23;;;;;;;23.29;37.61;99726.89;261211;1107;102974;-75
2021/06/11 16:47:16;;;;;;;3.53;1.98;;;;;;;23.20;38.05;99723.38;261655;1107;103020;-72
2021/06/11 16:52:21;;;;;;;1.85;1.75;;;;;;;23.17;38.55;99730.25;261340;1107;103062;-78
2021/06/11 16:57:25;;;;;;;1.88;1.78;;;;;;;23.12;38.57;99729.60;261259;1102;103030;-76
2021/06/11 17:02:30;;;;;;;2.23;2.13;;;;;;;23.05;38.40;99738.22;260563;1108;103042;-76
2021/06/11 17:07:34;;;;;;;2.45;2.13;;;;;;;23.02;38.89;99730.70;261625;1107;103099;-74
2021/06/11 17:12:38;;;;;;;3.58;2.08;;;;;;;23.00;39.02;99732.13;260781;1102;103090;-78
2021/06/11 17:17:44;;;;;;;10.73;2.05;;;;;;;22.92;39.46;99739.17;260457;1107;102972;-73
2021/06/11 17:22:58;;;;;;;2.35;2.25;;;;;;;22.83;39.80;99741.06;260068;1107;102968;-76
2021/06/11 17:28:17;;;;;;;2.15;2.05;;;;;;;22.74;39.79;99745.63;260209;1107;102945;-79
2021/06/11 17:33:28;;;;;;;2.25;2.15;;;;;;;22.61;39.65;99732.97;260039;1103;103386;-72
2021/06/11 17:38:44;;;;;;;2.15;2.05;;;;;;;22.50;40.24;99733.25;260044;1108;103062;-76
2021/06/11 17:43:51;;;;;;;3.93;2.00;;;;;;;22.37;40.85;99747.72;260648;1107;102994;-76
2021/06/11 17:48:56;;;;;;;3.78;2.38;;;;;;;22.26;41.19;99740.97;260537;1107;103064;-74
2021/06/11 17:54:11;;;;;;;2.53;2.20;;;;;;;22.09;41.82;99736.23;259863;1107;103753;-77
2021/06/11 17:59:16;;;;;;;11.98;2.75;;;;;;;21.91;42.36;99748.08;260021;1107;103046;-77
2021/06/11 18:04:26;;;;;;;3.63;2.50;;;;;;;21.71;42.74;99740.41;259889;1107;102961;-77
2021/06/11 18:09:32;;;;;;;7.18;2.88;;;;;;;21.49;43.51;99742.02;259997;1107;103061;-75
2021/06/11 18:14:37;;;;;;;3.35;2.83;;;;;;;21.25;44.13;99741.48;260771;1107;102956;-73
2021/06/11 18:19:43;;;;;;;11.08;2.80;;;;;;;21.00;44.94;99740.11;259999;1107;102939;-72
2021/06/11 18:24:51;;;;;;;2.23;2.13;;;;;;;20.71;45.61;99745.05;260561;1107;102959;-74
2021/06/11 18:29:57;;;;;;;4.65;2.70;;;;;;;20.45;46.61;99733.91;260004;1107;102997;-75
2021/06/11 18:35:01;;;;;;;7.17;2.57;;;;;;;20.20;47.28;99745.95;260485;1108;103071;-76
2021/06/11 18:40:07;;;;;;;4.30;2.60;;;;;;;19.96;47.95;99737.98;261065;1107;103003;-75
2021/06/11 18:45:16;;;;;;;5.00;3.00;;;;;;;19.75;48.63;99745.64;262250;1107;102736;-79
2021/06/11 18:50:20;;;;;;;2.80;2.57;;;;;;;19.50;49.36;99751.41;261004;1108;102968;-72
2021/06/11 18:55:25;;;;;;;2.60;2.07;;;;;;;19.22;50.17;99752.36;260851;1107;103141;-74
2021/06/11 19:00:32;;;;;;;3.13;2.25;;;;;;;18.90;50.57;99748.45;260961;1108;102933;-78
2021/06/11 19:05:36;;;;;;;;;;;;;;;18.49;51.58;99745.38;260290;1108;103065;-72
2021/06/11 19:10:44;;;;;;;3.18;2.98;;;;;;;18.16;52.35;99747.86;261252;1107;103068;-76
2021/06/11 19:15:57;;;;;;;3.35;2.95;;;;;;;17.92;52.99;99746.20;261431;1107;103118;-77
2021/06/11 19:21:08;;;;;;;3.75;3.20;;;;;;;17.66;53.79;99749.09;260457;1107;103289;-73
2021/06/11 19:26:18;;;;;;;14.15;3.13;;;;;;;17.37;54.29;99740.11;260406;1107;102996;-74
2021/06/11 19:31:40;;;;;;;10.00;3.00;;;;;;;17.05;55.07;99738.66;260529;1107;103038;-73
2021/06/11 19:36:58;;;;;;;9.98;4.05;;;;;;;16.80;55.79;99741.48;260347;1107;103070;-72
2021/06/11 19:42:19;;;;;;;5.93;3.23;;;;;;;16.64;56.25;99745.29;259868;1108;103103;-78
2021/06/11 19:47:23;;;;;;;6.15;3.40;;;;;;;16.46;56.83;99741.28;260343;1108;102974;-75
2021/06/11 19:52:54;;;;;;;7.53;3.68;;;;;;;16.20;57.48;99751.30;260437;1108;103088;-78
2021/06/11 19:58:00;;;;;;;10.63;4.33;;;;;;;15.99;57.69;99749.67;260367;1107;102971;-75
2021/06/11 20:03:06;;;;;;;9.95;4.13;;;;;;;15.79;58.49;99745.13;260620;1107;103007;-77
2021/06/11 20:08:11;;;;;;;15.23;5.33;;;;;;;15.74;58.79;99745.11;261902;1107;101566;-78
2021/06/11 20:13:19;;;;;;;14.15;4.78;;;;;;;15.79;59.33;99762.05;260047;1107;102955;-73
2021/06/11 20:18:24;;;;;;;3.65;3.33;;;;;;;15.86;59.73;99760.98;261747;1107;101880;-72
2021/06/11 20:23:30;;;;;;;3.33;3.13;;;;;;;15.91;59.85;99755.59;261585;1108;104628;-72
2021/06/11 20:28:36;;;;;;;8.50;5.40;;;;;;;15.89;59.91;99760.45;262044;1107;102700;-71
2021/06/11 20:33:43;;;;;;;4.08;3.70;;;;;;;15.83;60.47;99765.02;261923;1107;103020;-71
2021/06/11 20:38:48;;;;;;;7.18;3.15;;;;;;;15.75;60.98;99763.66;262414;1108;101644;-70
2021/06/11 20:43:54;;;;;;;4.05;3.75;;;;;;;15.64;60.71;99764.72;262118;1107;103197;-70
2021/06/11 20:49:00;;;;;;;11.28;3.98;;;;;;;15.64;61.04;99759.34;262689;1107;101364;-70
2021/06/11 20:54:06;;;;;;;5.58;4.85;;;;;;;15.64;60.93;99758.53;262600;1108;102015;-71
2021/06/11 20:59:12;;;;;;;12.03;4.15;;;;;;;15.51;61.31;99759.84;261635;1108;103063;-71
2021/06/11 21:04:18;;;;;;;6.38;5.40;;;;;;;15.46;61.75;99757.14;260506;1103;103006;-74
2021/06/11 21:09:22;;;;;;;7.98;5.68;;;;;;;15.37;62.20;99751.48;260828;1107;102966;-77
2021/06/11 21:14:32;;;;;;;9.98;5.28;;;;;;;15.31;61.73;99757.09;261376;1107;102971;-73
2021/06/11 21:19:37;;;;;;;14.33;6.30;;;;;;;15.31;62.47;99757.91;260050;1107;103060;-76
2021/06/11 21:24:43;;;;;;;8.48;6.05;;;;;;;15.26;63.09;99760.61;260614;1107;103109;-74
2021/06/11 21:29:49;;;;;;;8.35;5.30;;;;;;;15.22;63.56;99761.39;260966;1101;103104;-73
2021/06/11 21:34:55;;;;;;;9.28;5.53;;;;;;;15.09;63.31;99763.49;260086;1107;102969;-73
2021/06/11 21:40:02;;;;;;;7.40;4.78;;;;;;;14.89;63.08;99771.48;260136;1107;103103;-72
2021/06/11 21:45:09;;;;;;;12.90;6.13;;;;;;;14.72;64.06;99768.16;260157;1103;103120;-72
2021/06/11 21:50:14;;;;;;;22.90;10.77;;;;;;;14.64;64.35;99766.80;260901;1108;103064;-71
2021/06/11 21:55:18;;;;;;;21.65;9.50;;;;;;;14.63;64.12;99765.19;260860;1107;103033;-71
2021/06/11 22:00:29;;;;;;;16.35;8.85;;;;;;;14.55;64.17;99772.91;260231;1107;102984;-71
2021/06/11 22:05:36;;;;;;;15.73;7.88;;;;;;;14.49;64.34;99764.83;260291;1108;103097;-70
2021/06/11 22:10:44;;;;;;;23.98;8.00;;;;;;;14.36;64.73;99767.14;261532;1107;102985;-71
2021/06/11 22:15:49;;;;;;;16.23;7.33;;;;;;;14.15;64.90;99764.30;261194;1108;103038;-71
2021/06/11 22:20:54;;;;;;;11.65;8.75;;;;;;;14.11;65.17;99770.44;260720;1108;102972;-74
2021/06/11 22:25:59;;;;;;;11.78;8.98;;;;;;;14.15;65.24;99776.91;260191;1102;103563;-73
2021/06/11 22:31:05;;;;;;;20.35;9.63;;;;;;;14.20;65.35;99774.27;261218;1107;102968;-71
2021/06/11 22:36:10;;;;;;;18.18;8.38;;;;;;;14.09;65.58;99780.60;261041;1107;103077;-72
2021/06/11 22:41:16;;;;;;;10.85;8.65;;;;;;;13.91;65.77;99781.00;262616;1107;101634;-72
2021/06/11 22:46:21;;;;;;;11.58;6.20;;;;;;;13.89;65.70;99775.09;262412;1108;103041;-71
2021/06/11 22:51:25;;;;;;;10.50;6.55;;;;;;;13.82;65.73;99775.30;261803;1107;103042;-73
2021/06/11 22:56:29;;;;;;;10.60;5.90;;;;;;;13.65;65.76;99778.10;262043;1103;103016;-72
2021/06/11 23:01:34;;;;;;;8.58;6.88;;;;;;;13.45;66.10;99781.37;260163;1103;103046;-72
2021/06/11 23:06:40;;;;;;;11.48;9.10;;;;;;;13.33;66.39;99778.05;260928;1107;103157;-72
2021/06/11 23:11:45;;;;;;;14.78;9.10;;;;;;;13.37;67.23;99783.71;260429;1107;103064;-71
2021/06/11 23:16:51;;;;;;;13.65;8.40;;;;;;;13.40;67.25;99770.63;260534;1107;103000;-71
2021/06/11 23:21:56;;;;;;;21.30;8.80;;;;;;;13.40;67.27;99775.98;260891;1108;103024;-72
2021/06/11 23:27:00;;;;;;;11.13;8.03;;;;;;;13.47;67.87;99781.12;261642;1107;102929;-70
2021/06/11 23:32:06;;;;;;;12.93;9.77;;;;;;;13.60;68.15;99774.56;260894;1107;103183;-71
2021/06/11 23:37:11;;;;;;;14.95;10.20;;;;;;;13.65;67.87;99762.03;260854;1107;103495;-70
2021/06/11 23:42:16;;;;;;;7.78;6.93;;;;;;;13.60;67.81;99759.30;260120;1108;103090;-70
2021/06/11 23:47:21;;;;;;;11.18;7.85;;;;;;;13.61;68.55;99758.23;260375;1107;103100;-73
2021/06/11 23:52:27;;;;;;;10.33;8.08;;;;;;;13.64;68.11;99752.38;260259;1107;103014;-70
2021/06/11 23:57:36;;;;;;;11.00;7.83;;;;;;;13.51;67.95;99749.29;260775;1107;103042;-70
